Hauptseite
METAR-TAF:

METAR-TAF

Flughäfen :

Fliegerhorst Diepholz

Diepholz, Deutschland

Breite: 52-35N, Länge: 008-21E, Höhe: 39 m

Beobachtung

Neuester Wetterbericht von vor 6 Stunden und 37 Minuten, um 13:20 UTC
Wind 9 kt aus Südwest
Temperatur 28°C
Luftfeuchtigkeit 28%
Luftdruck 1016 hPa
Sichtweite 10 km oder mehr
Aufgelockert bewölkt in der Höhe von 33000 ft

METAR: ETND 051320Z 22009KT 9999 SCT330 28/08 Q1016 BLU+

Zeit: 21:57 (19:57 UTC)


TAF: fehlend

Wetterbeobachtungen und Prognosen von mehr als 4000 Flughäfen (METAR und TAF Bericht).

Die verfügbaren Stationen werden durch gelbe und rote Markierungen auf der Karte dargestellt.

Führen Sie die Maus auf sie, um den Namen der Station zu sehen.

Darauf klicken, um die Beobachtung von Wetterbeobachtungen und Prognosen zu sehen.

Um die Karte zu ändern : klicken Sie auf den grünen Tasten mit einem schwarzen Kreuz Zum Vergrößern, auf den grünen Button mit einem Gedankenstrich zu verkleinern, oder auf die grünen Pfeile für benachbarte Karten.


METAR-TAF: